sensor_id;sensor_type;location;lat;lon;timestamp;temperature;humidity
7194;DHT22;3638;48.820;9.244;2023-07-30T00:01:35;18.40;99.90
7194;DHT22;3638;48.820;9.244;2023-07-30T00:04:02;18.40;99.90
7194;DHT22;3638;48.820;9.244;2023-07-30T00:06:28;18.30;99.90
7194;DHT22;3638;48.820;9.244;2023-07-30T00:08:57;18.30;99.90
7194;DHT22;3638;48.820;9.244;2023-07-30T00:11:23;18.10;99.90
7194;DHT22;3638;48.820;9.244;2023-07-30T00:13:50;18.10;99.90
7194;DHT22;3638;48.820;9.244;2023-07-30T00:16:17;18.10;99.90
7194;DHT22;3638;48.820;9.244;2023-07-30T00:18:44;18.10;99.90
7194;DHT22;3638;48.820;9.244;2023-07-30T00:21:11;18.20;99.90
7194;DHT22;3638;48.820;9.244;2023-07-30T00:23:38;18.10;99.90
7194;DHT22;3638;48.820;9.244;2023-07-30T00:26:06;18.00;99.90
7194;DHT22;3638;48.820;9.244;2023-07-30T00:28:33;18.00;99.90
7194;DHT22;3638;48.820;9.244;2023-07-30T00:30:59;17.90;99.90
7194;DHT22;3638;48.820;9.244;2023-07-30T00:33:26;17.80;99.90
7194;DHT22;3638;48.820;9.244;2023-07-30T00:35:53;17.80;99.90
7194;DHT22;3638;48.820;9.244;2023-07-30T00:38:20;17.70;99.90
7194;DHT22;3638;48.820;9.244;2023-07-30T00:40:47;17.80;99.90
7194;DHT22;3638;48.820;9.244;2023-07-30T00:43:15;17.80;99.90
7194;DHT22;3638;48.820;9.244;2023-07-30T00:45:44;17.90;99.90
7194;DHT22;3638;48.820;9.244;2023-07-30T00:48:11;18.00;99.90
7194;DHT22;3638;48.820;9.244;2023-07-30T00:50:40;17.90;99.90
7194;DHT22;3638;48.820;9.244;2023-07-30T00:53:09;18.10;99.90
7194;DHT22;3638;48.820;9.244;2023-07-30T00:55:36;18.10;99.90
7194;DHT22;3638;48.820;9.244;2023-07-30T00:58:03;18.10;99.90
7194;DHT22;3638;48.820;9.244;2023-07-30T01:00:32;18.10;99.90
7194;DHT22;3638;48.820;9.244;2023-07-30T01:02:59;18.10;99.90
7194;DHT22;3638;48.820;9.244;2023-07-30T01:05:26;18.10;99.90
7194;DHT22;3638;48.820;9.244;2023-07-30T01:07:53;16.70;99.90
7194;DHT22;3638;48.820;9.244;2023-07-30T01:10:21;17.90;99.90
7194;DHT22;3638;48.820;9.244;2023-07-30T01:12:50;17.90;99.90
7194;DHT22;3638;48.820;9.244;2023-07-30T01:15:18;17.90;99.90
7194;DHT22;3638;48.820;9.244;2023-07-30T01:17:46;17.90;99.90
7194;DHT22;3638;48.820;9.244;2023-07-30T01:20:13;17.80;99.90
7194;DHT22;3638;48.820;9.244;2023-07-30T01:22:42;17.80;99.90
7194;DHT22;3638;48.820;9.244;2023-07-30T01:27:37;18.10;99.90
7194;DHT22;3638;48.820;9.244;2023-07-30T01:30:14;18.10;99.90
7194;DHT22;3638;48.820;9.244;2023-07-30T01:32:43;18.10;99.90
7194;DHT22;3638;48.820;9.244;2023-07-30T01:35:13;18.00;99.90
7194;DHT22;3638;48.820;9.244;2023-07-30T01:37:42;18.00;99.90
7194;DHT22;3638;48.820;9.244;2023-07-30T01:40:11;18.00;99.90
7194;DHT22;3638;48.820;9.244;2023-07-30T01:42:39;18.10;99.90
7194;DHT22;3638;48.820;9.244;2023-07-30T01:45:06;18.20;99.90
7194;DHT22;3638;48.820;9.244;2023-07-30T01:47:34;18.30;99.90
7194;DHT22;3638;48.820;9.244;2023-07-30T01:50:00;18.40;99.90
7194;DHT22;3638;48.820;9.244;2023-07-30T01:52:28;18.30;99.90
7194;DHT22;3638;48.820;9.244;2023-07-30T01:54:56;18.30;99.90
7194;DHT22;3638;48.820;9.244;2023-07-30T01:59:51;18.40;99.90
7194;DHT22;3638;48.820;9.244;2023-07-30T02:02:18;18.40;99.90
7194;DHT22;3638;48.820;9.244;2023-07-30T02:04:45;18.40;99.90
7194;DHT22;3638;48.820;9.244;2023-07-30T02:07:12;18.50;99.90
7194;DHT22;3638;48.820;9.244;2023-07-30T02:09:38;18.50;99.90
7194;DHT22;3638;48.820;9.244;2023-07-30T02:12:08;18.50;99.90
7194;DHT22;3638;48.820;9.244;2023-07-30T02:14:35;18.40;99.90
7194;DHT22;3638;48.820;9.244;2023-07-30T02:17:02;18.40;99.90
7194;DHT22;3638;48.820;9.244;2023-07-30T02:19:29;18.50;99.90
7194;DHT22;3638;48.820;9.244;2023-07-30T02:21:56;18.40;99.90
7194;DHT22;3638;48.820;9.244;2023-07-30T02:24:22;18.40;99.90
7194;DHT22;3638;48.820;9.244;2023-07-30T02:26:49;18.50;99.90
7194;DHT22;3638;48.820;9.244;2023-07-30T02:29:17;18.50;99.90
7194;DHT22;3638;48.820;9.244;2023-07-30T02:31:44;18.40;99.90
7194;DHT22;3638;48.820;9.244;2023-07-30T02:34:11;18.40;99.90
7194;DHT22;3638;48.820;9.244;2023-07-30T02:36:38;18.40;99.90
7194;DHT22;3638;48.820;9.244;2023-07-30T02:39:05;18.40;99.90
7194;DHT22;3638;48.820;9.244;2023-07-30T02:41:31;18.30;99.90
7194;DHT22;3638;48.820;9.244;2023-07-30T02:43:58;18.30;99.90
7194;DHT22;3638;48.820;9.244;2023-07-30T02:46:26;18.20;99.90
7194;DHT22;3638;48.820;9.244;2023-07-30T02:48:53;18.40;99.90
7194;DHT22;3638;48.820;9.244;2023-07-30T02:51:20;18.40;99.90
7194;DHT22;3638;48.820;9.244;2023-07-30T02:53:47;18.30;99.90
7194;DHT22;3638;48.820;9.244;2023-07-30T02:56:18;18.30;99.90
7194;DHT22;3638;48.820;9.244;2023-07-30T02:58:45;18.40;99.90
7194;DHT22;3638;48.820;9.244;2023-07-30T03:01:11;18.50;99.90
7194;DHT22;3638;48.820;9.244;2023-07-30T03:03:40;18.40;99.90
7194;DHT22;3638;48.820;9.244;2023-07-30T03:06:06;18.30;99.90
7194;DHT22;3638;48.820;9.244;2023-07-30T03:08:33;18.20;99.90
7194;DHT22;3638;48.820;9.244;2023-07-30T03:11:01;18.20;99.90
7194;DHT22;3638;48.820;9.244;2023-07-30T03:13:28;18.10;99.90
7194;DHT22;3638;48.820;9.244;2023-07-30T03:15:55;18.20;99.90
7194;DHT22;3638;48.820;9.244;2023-07-30T03:18:22;18.20;99.90
7194;DHT22;3638;48.820;9.244;2023-07-30T03:20:50;18.10;99.90
7194;DHT22;3638;48.820;9.244;2023-07-30T03:23:17;18.20;99.90
7194;DHT22;3638;48.820;9.244;2023-07-30T03:25:44;18.20;99.90
7194;DHT22;3638;48.820;9.244;2023-07-30T03:28:11;18.20;99.90
7194;DHT22;3638;48.820;9.244;2023-07-30T03:30:37;18.10;99.90
7194;DHT22;3638;48.820;9.244;2023-07-30T03:33:04;18.20;99.90
7194;DHT22;3638;48.820;9.244;2023-07-30T03:35:31;18.20;99.90
7194;DHT22;3638;48.820;9.244;2023-07-30T03:37:59;18.10;99.90
7194;DHT22;3638;48.820;9.244;2023-07-30T03:40:26;18.10;99.90
7194;DHT22;3638;48.820;9.244;2023-07-30T03:42:53;18.10;99.90
7194;DHT22;3638;48.820;9.244;2023-07-30T03:45:20;18.10;99.90
7194;DHT22;3638;48.820;9.244;2023-07-30T03:47:47;18.20;99.90
7194;DHT22;3638;48.820;9.244;2023-07-30T03:50:14;18.20;99.90
7194;DHT22;3638;48.820;9.244;2023-07-30T03:52:41;18.30;99.90
7194;DHT22;3638;48.820;9.244;2023-07-30T03:55:09;18.20;99.90
7194;DHT22;3638;48.820;9.244;2023-07-30T03:57:36;18.50;99.90
7194;DHT22;3638;48.820;9.244;2023-07-30T04:00:04;18.30;99.90
7194;DHT22;3638;48.820;9.244;2023-07-30T04:02:32;18.40;99.90
7194;DHT22;3638;48.820;9.244;2023-07-30T04:04:59;18.40;99.90
7194;DHT22;3638;48.820;9.244;2023-07-30T04:07:26;18.30;99.90
7194;DHT22;3638;48.820;9.244;2023-07-30T04:09:53;18.30;99.90
7194;DHT22;3638;48.820;9.244;2023-07-30T04:12:22;18.40;99.90
7194;DHT22;3638;48.820;9.244;2023-07-30T04:14:49;18.50;99.90
7194;DHT22;3638;48.820;9.244;2023-07-30T04:17:16;18.50;99.90
7194;DHT22;3638;48.820;9.244;2023-07-30T04:19:43;18.50;99.90
7194;DHT22;3638;48.820;9.244;2023-07-30T04:22:10;18.40;99.90
7194;DHT22;3638;48.820;9.244;2023-07-30T04:24:36;18.50;99.90
7194;DHT22;3638;48.820;9.244;2023-07-30T04:27:04;18.60;99.90
7194;DHT22;3638;48.820;9.244;2023-07-30T04:29:32;18.60;99.90
7194;DHT22;3638;48.820;9.244;2023-07-30T04:31:59;18.60;99.90
7194;DHT22;3638;48.820;9.244;2023-07-30T04:34:26;18.60;99.90
7194;DHT22;3638;48.820;9.244;2023-07-30T04:36:52;18.50;99.90
7194;DHT22;3638;48.820;9.244;2023-07-30T04:39:19;18.60;99.90
7194;DHT22;3638;48.820;9.244;2023-07-30T04:41:46;18.60;99.90
7194;DHT22;3638;48.820;9.244;2023-07-30T04:44:13;18.70;99.90
7194;DHT22;3638;48.820;9.244;2023-07-30T04:46:41;18.70;99.90
7194;DHT22;3638;48.820;9.244;2023-07-30T04:49:08;18.60;99.90
7194;DHT22;3638;48.820;9.244;2023-07-30T04:51:35;18.70;99.90
7194;DHT22;3638;48.820;9.244;2023-07-30T04:54:03;18.70;99.90
7194;DHT22;3638;48.820;9.244;2023-07-30T04:56:30;18.80;99.90
7194;DHT22;3638;48.820;9.244;2023-07-30T04:58:56;18.80;99.90
7194;DHT22;3638;48.820;9.244;2023-07-30T05:01:24;18.80;99.90
7194;DHT22;3638;48.820;9.244;2023-07-30T05:03:52;18.90;99.90
7194;DHT22;3638;48.820;9.244;2023-07-30T05:06:19;19.10;99.90
7194;DHT22;3638;48.820;9.244;2023-07-30T05:08:46;19.10;99.90
7194;DHT22;3638;48.820;9.244;2023-07-30T05:11:13;19.20;99.90
7194;DHT22;3638;48.820;9.244;2023-07-30T05:13:40;19.30;99.90
7194;DHT22;3638;48.820;9.244;2023-07-30T05:16:07;19.20;99.90
7194;DHT22;3638;48.820;9.244;2023-07-30T05:18:33;19.20;99.90
7194;DHT22;3638;48.820;9.244;2023-07-30T05:21:02;19.20;99.90
7194;DHT22;3638;48.820;9.244;2023-07-30T05:23:28;19.20;99.90
7194;DHT22;3638;48.820;9.244;2023-07-30T05:25:55;19.10;99.90
7194;DHT22;3638;48.820;9.244;2023-07-30T05:28:22;19.10;99.90
7194;DHT22;3638;48.820;9.244;2023-07-30T05:30:49;19.20;99.90
7194;DHT22;3638;48.820;9.244;2023-07-30T05:33:16;19.20;99.90
7194;DHT22;3638;48.820;9.244;2023-07-30T05:35:42;19.00;99.90
7194;DHT22;3638;48.820;9.244;2023-07-30T05:38:11;19.10;99.90
7194;DHT22;3638;48.820;9.244;2023-07-30T05:40:37;19.10;99.90
7194;DHT22;3638;48.820;9.244;2023-07-30T05:43:04;19.20;99.90
7194;DHT22;3638;48.820;9.244;2023-07-30T05:45:31;19.20;99.90
7194;DHT22;3638;48.820;9.244;2023-07-30T05:48:00;20.20;99.90
7194;DHT22;3638;48.820;9.244;2023-07-30T05:50:26;19.00;99.90
7194;DHT22;3638;48.820;9.244;2023-07-30T05:52:53;19.00;99.90
7194;DHT22;3638;48.820;9.244;2023-07-30T05:55:21;19.00;99.90
7194;DHT22;3638;48.820;9.244;2023-07-30T05:57:48;18.90;99.90
7194;DHT22;3638;48.820;9.244;2023-07-30T06:00:15;18.90;99.90
7194;DHT22;3638;48.820;9.244;2023-07-30T06:02:42;19.00;99.90
7194;DHT22;3638;48.820;9.244;2023-07-30T06:05:09;18.90;99.90
7194;DHT22;3638;48.820;9.244;2023-07-30T06:07:36;16.20;99.90
7194;DHT22;3638;48.820;9.244;2023-07-30T06:10:03;18.90;99.90
7194;DHT22;3638;48.820;9.244;2023-07-30T06:12:32;19.20;99.90
7194;DHT22;3638;48.820;9.244;2023-07-30T06:14:58;19.20;99.90
7194;DHT22;3638;48.820;9.244;2023-07-30T06:17:25;19.40;99.90
7194;DHT22;3638;48.820;9.244;2023-07-30T06:19:52;19.40;99.90
7194;DHT22;3638;48.820;9.244;2023-07-30T06:22:19;19.70;99.90
7194;DHT22;3638;48.820;9.244;2023-07-30T06:24:46;19.80;99.90
7194;DHT22;3638;48.820;9.244;2023-07-30T06:27:13;20.10;99.90
7194;DHT22;3638;48.820;9.244;2023-07-30T06:29:41;20.20;99.90
7194;DHT22;3638;48.820;9.244;2023-07-30T06:32:08;20.20;99.90
7194;DHT22;3638;48.820;9.244;2023-07-30T06:34:34;20.50;99.90
7194;DHT22;3638;48.820;9.244;2023-07-30T06:37:01;20.30;99.90
7194;DHT22;3638;48.820;9.244;2023-07-30T06:39:28;20.40;99.90
7194;DHT22;3638;48.820;9.244;2023-07-30T06:41:55;20.50;99.90
7194;DHT22;3638;48.820;9.244;2023-07-30T06:44:22;20.50;99.90
7194;DHT22;3638;48.820;9.244;2023-07-30T06:46:51;20.70;99.90
7194;DHT22;3638;48.820;9.244;2023-07-30T06:49:18;21.10;99.90
7194;DHT22;3638;48.820;9.244;2023-07-30T06:51:44;21.30;99.90
7194;DHT22;3638;48.820;9.244;2023-07-30T06:54:11;21.20;99.90
7194;DHT22;3638;48.820;9.244;2023-07-30T06:56:38;21.20;99.90
7194;DHT22;3638;48.820;9.244;2023-07-30T06:59:05;21.50;99.90
7194;DHT22;3638;48.820;9.244;2023-07-30T07:01:32;21.70;99.90
7194;DHT22;3638;48.820;9.244;2023-07-30T07:04:00;21.50;99.90
7194;DHT22;3638;48.820;9.244;2023-07-30T07:06:27;21.60;99.90
7194;DHT22;3638;48.820;9.244;2023-07-30T07:08:53;21.30;99.90
7194;DHT22;3638;48.820;9.244;2023-07-30T07:11:20;20.90;99.90
7194;DHT22;3638;48.820;9.244;2023-07-30T07:13:47;20.70;99.90
7194;DHT22;3638;48.820;9.244;2023-07-30T07:16:14;20.70;99.90
7194;DHT22;3638;48.820;9.244;2023-07-30T07:18:40;20.80;99.90
7194;DHT22;3638;48.820;9.244;2023-07-30T07:21:09;20.90;99.90
7194;DHT22;3638;48.820;9.244;2023-07-30T07:23:36;20.60;99.90
7194;DHT22;3638;48.820;9.244;2023-07-30T07:26:03;20.50;99.90
7194;DHT22;3638;48.820;9.244;2023-07-30T07:28:30;20.40;99.90
7194;DHT22;3638;48.820;9.244;2023-07-30T07:30:57;20.40;99.90
7194;DHT22;3638;48.820;9.244;2023-07-30T07:33:24;20.50;99.90
7194;DHT22;3638;48.820;9.244;2023-07-30T07:35:50;20.40;99.90
7194;DHT22;3638;48.820;9.244;2023-07-30T07:38:19;20.20;99.90
7194;DHT22;3638;48.820;9.244;2023-07-30T07:40:45;20.20;99.90
7194;DHT22;3638;48.820;9.244;2023-07-30T07:43:12;20.20;99.90
7194;DHT22;3638;48.820;9.244;2023-07-30T07:45:39;19.90;99.90
7194;DHT22;3638;48.820;9.244;2023-07-30T07:48:06;19.80;99.90
7194;DHT22;3638;48.820;9.244;2023-07-30T07:50:33;19.40;99.90
7194;DHT22;3638;48.820;9.244;2023-07-30T07:53:00;19.20;99.90
7194;DHT22;3638;48.820;9.244;2023-07-30T07:55:28;19.20;99.90
7194;DHT22;3638;48.820;9.244;2023-07-30T07:57:55;19.00;99.90
7194;DHT22;3638;48.820;9.244;2023-07-30T08:00:22;19.00;99.90
7194;DHT22;3638;48.820;9.244;2023-07-30T08:02:49;19.10;99.90
7194;DHT22;3638;48.820;9.244;2023-07-30T08:05:15;19.20;99.90
7194;DHT22;3638;48.820;9.244;2023-07-30T08:07:45;19.50;99.90
7194;DHT22;3638;48.820;9.244;2023-07-30T08:10:12;19.70;99.90
7194;DHT22;3638;48.820;9.244;2023-07-30T08:12:41;19.90;99.90
7194;DHT22;3638;48.820;9.244;2023-07-30T08:15:08;20.10;99.90
7194;DHT22;3638;48.820;9.244;2023-07-30T08:17:35;20.30;99.90
7194;DHT22;3638;48.820;9.244;2023-07-30T08:20:03;20.50;99.90
7194;DHT22;3638;48.820;9.244;2023-07-30T08:22:30;20.60;99.90
7194;DHT22;3638;48.820;9.244;2023-07-30T08:24:57;20.90;99.90
7194;DHT22;3638;48.820;9.244;2023-07-30T08:27:24;20.80;99.90
7194;DHT22;3638;48.820;9.244;2023-07-30T08:29:52;21.30;99.90
7194;DHT22;3638;48.820;9.244;2023-07-30T08:32:19;21.40;99.90
7194;DHT22;3638;48.820;9.244;2023-07-30T08:34:47;21.30;99.90
7194;DHT22;3638;48.820;9.244;2023-07-30T08:37:14;21.30;99.90
7194;DHT22;3638;48.820;9.244;2023-07-30T08:39:41;22.10;99.90
7194;DHT22;3638;48.820;9.244;2023-07-30T08:42:08;22.20;99.90
7194;DHT22;3638;48.820;9.244;2023-07-30T08:44:35;22.60;99.90
7194;DHT22;3638;48.820;9.244;2023-07-30T08:47:03;22.60;99.90
7194;DHT22;3638;48.820;9.244;2023-07-30T08:49:30;22.60;99.90
7194;DHT22;3638;48.820;9.244;2023-07-30T08:51:58;22.50;99.90
7194;DHT22;3638;48.820;9.244;2023-07-30T08:54:29;22.60;99.90
7194;DHT22;3638;48.820;9.244;2023-07-30T08:56:57;22.80;99.90
7194;DHT22;3638;48.820;9.244;2023-07-30T08:59:25;22.80;99.90
7194;DHT22;3638;48.820;9.244;2023-07-30T09:01:54;22.80;99.90
7194;DHT22;3638;48.820;9.244;2023-07-30T09:04:23;22.60;99.90
7194;DHT22;3638;48.820;9.244;2023-07-30T09:06:50;22.30;99.90
7194;DHT22;3638;48.820;9.244;2023-07-30T09:09:17;22.10;99.90
7194;DHT22;3638;48.820;9.244;2023-07-30T09:11:51;22.00;99.90
7194;DHT22;3638;48.820;9.244;2023-07-30T09:14:19;22.00;99.90
7194;DHT22;3638;48.820;9.244;2023-07-30T09:16:47;22.40;99.90
7194;DHT22;3638;48.820;9.244;2023-07-30T09:19:16;22.70;99.90
7194;DHT22;3638;48.820;9.244;2023-07-30T09:21:45;23.00;99.90
7194;DHT22;3638;48.820;9.244;2023-07-30T09:24:12;22.70;99.90
7194;DHT22;3638;48.820;9.244;2023-07-30T09:26:46;22.70;99.90
7194;DHT22;3638;48.820;9.244;2023-07-30T09:29:13;22.80;99.90
7194;DHT22;3638;48.820;9.244;2023-07-30T09:31:46;23.30;99.90
7194;DHT22;3638;48.820;9.244;2023-07-30T09:34:17;23.30;99.90
7194;DHT22;3638;48.820;9.244;2023-07-30T09:36:47;23.40;99.90
7194;DHT22;3638;48.820;9.244;2023-07-30T09:39:17;23.40;99.90
7194;DHT22;3638;48.820;9.244;2023-07-30T09:41:44;23.40;99.90
7194;DHT22;3638;48.820;9.244;2023-07-30T09:44:12;23.20;99.90
7194;DHT22;3638;48.820;9.244;2023-07-30T09:46:42;22.60;99.90
7194;DHT22;3638;48.820;9.244;2023-07-30T09:49:11;22.50;99.90
7194;DHT22;3638;48.820;9.244;2023-07-30T09:51:38;22.50;99.90
7194;DHT22;3638;48.820;9.244;2023-07-30T09:54:08;22.50;99.90
7194;DHT22;3638;48.820;9.244;2023-07-30T09:56:36;22.10;99.90
7194;DHT22;3638;48.820;9.244;2023-07-30T09:59:03;22.40;99.90
7194;DHT22;3638;48.820;9.244;2023-07-30T10:01:31;22.30;99.90
7194;DHT22;3638;48.820;9.244;2023-07-30T10:04:00;22.40;99.90
7194;DHT22;3638;48.820;9.244;2023-07-30T10:06:36;22.10;99.90
7194;DHT22;3638;48.820;9.244;2023-07-30T10:09:05;22.40;99.90
7194;DHT22;3638;48.820;9.244;2023-07-30T10:11:34;22.70;99.90
7194;DHT22;3638;48.820;9.244;2023-07-30T10:14:01;22.80;99.90
7194;DHT22;3638;48.820;9.244;2023-07-30T10:16:29;23.10;99.90
7194;DHT22;3638;48.820;9.244;2023-07-30T10:18:56;23.30;99.90
7194;DHT22;3638;48.820;9.244;2023-07-30T10:21:25;23.50;99.90
7194;DHT22;3638;48.820;9.244;2023-07-30T10:23:59;23.70;99.90
7194;DHT22;3638;48.820;9.244;2023-07-30T10:26:31;23.60;99.90
7194;DHT22;3638;48.820;9.244;2023-07-30T10:29:17;23.80;99.90
7194;DHT22;3638;48.820;9.244;2023-07-30T10:31:49;23.40;99.90
7194;DHT22;3638;48.820;9.244;2023-07-30T10:34:18;23.30;99.90
7194;DHT22;3638;48.820;9.244;2023-07-30T10:36:46;23.30;99.90
7194;DHT22;3638;48.820;9.244;2023-07-30T10:39:16;23.30;99.90
7194;DHT22;3638;48.820;9.244;2023-07-30T10:41:46;21.00;99.90
7194;DHT22;3638;48.820;9.244;2023-07-30T10:44:22;23.90;99.90
7194;DHT22;3638;48.820;9.244;2023-07-30T10:49:17;23.90;99.90
7194;DHT22;3638;48.820;9.244;2023-07-30T10:51:44;23.80;99.90
7194;DHT22;3638;48.820;9.244;2023-07-30T10:54:11;23.60;99.90
7194;DHT22;3638;48.820;9.244;2023-07-30T10:56:38;28.30;99.90
7194;DHT22;3638;48.820;9.244;2023-07-30T10:59:07;23.90;99.90
7194;DHT22;3638;48.820;9.244;2023-07-30T11:01:38;24.00;99.90
7194;DHT22;3638;48.820;9.244;2023-07-30T11:04:08;23.70;99.90
7194;DHT22;3638;48.820;9.244;2023-07-30T11:09:03;23.90;99.90
7194;DHT22;3638;48.820;9.244;2023-07-30T11:11:30;24.00;99.90
7194;DHT22;3638;48.820;9.244;2023-07-30T11:13:58;24.00;99.90
7194;DHT22;3638;48.820;9.244;2023-07-30T11:16:26;24.20;99.90
7194;DHT22;3638;48.820;9.244;2023-07-30T11:21:20;24.50;99.90
7194;DHT22;3638;48.820;9.244;2023-07-30T11:23:47;24.10;99.90
7194;DHT22;3638;48.820;9.244;2023-07-30T11:26:15;23.90;99.90
7194;DHT22;3638;48.820;9.244;2023-07-30T11:28:43;23.90;99.90
7194;DHT22;3638;48.820;9.244;2023-07-30T11:31:12;24.10;99.90
7194;DHT22;3638;48.820;9.244;2023-07-30T11:33:44;23.90;99.90
7194;DHT22;3638;48.820;9.244;2023-07-30T11:36:14;24.00;99.90
7194;DHT22;3638;48.820;9.244;2023-07-30T11:38:43;23.90;99.90
7194;DHT22;3638;48.820;9.244;2023-07-30T11:41:10;23.70;99.90
7194;DHT22;3638;48.820;9.244;2023-07-30T11:43:39;23.40;99.90
7194;DHT22;3638;48.820;9.244;2023-07-30T11:46:08;23.40;99.90
7194;DHT22;3638;48.820;9.244;2023-07-30T11:48:36;23.30;99.90
7194;DHT22;3638;48.820;9.244;2023-07-30T11:51:04;23.30;99.90
7194;DHT22;3638;48.820;9.244;2023-07-30T11:53:45;23.20;99.90
7194;DHT22;3638;48.820;9.244;2023-07-30T11:56:17;23.20;99.90
7194;DHT22;3638;48.820;9.244;2023-07-30T11:58:46;23.10;99.90
7194;DHT22;3638;48.820;9.244;2023-07-30T12:01:13;23.10;99.90
7194;DHT22;3638;48.820;9.244;2023-07-30T12:03:40;23.20;99.90
7194;DHT22;3638;48.820;9.244;2023-07-30T12:06:09;23.40;99.90
7194;DHT22;3638;48.820;9.244;2023-07-30T12:08:37;23.20;99.90
7194;DHT22;3638;48.820;9.244;2023-07-30T12:11:05;23.30;99.90
7194;DHT22;3638;48.820;9.244;2023-07-30T12:13:33;23.40;99.90
7194;DHT22;3638;48.820;9.244;2023-07-30T12:16:00;23.50;99.90
7194;DHT22;3638;48.820;9.244;2023-07-30T12:18:28;23.40;99.90
7194;DHT22;3638;48.820;9.244;2023-07-30T12:20:54;23.40;99.90
7194;DHT22;3638;48.820;9.244;2023-07-30T12:23:24;23.40;99.90
7194;DHT22;3638;48.820;9.244;2023-07-30T12:25:51;23.30;99.90
7194;DHT22;3638;48.820;9.244;2023-07-30T12:28:18;23.50;99.90
7194;DHT22;3638;48.820;9.244;2023-07-30T12:30:46;23.60;99.90
7194;DHT22;3638;48.820;9.244;2023-07-30T12:33:13;23.60;99.90
7194;DHT22;3638;48.820;9.244;2023-07-30T12:35:40;23.60;99.90
7194;DHT22;3638;48.820;9.244;2023-07-30T12:38:07;23.70;99.90
7194;DHT22;3638;48.820;9.244;2023-07-30T12:40:35;24.00;99.90
7194;DHT22;3638;48.820;9.244;2023-07-30T12:43:02;23.80;99.90
7194;DHT22;3638;48.820;9.244;2023-07-30T12:45:29;23.70;99.90
7194;DHT22;3638;48.820;9.244;2023-07-30T12:47:57;23.80;99.90
7194;DHT22;3638;48.820;9.244;2023-07-30T12:50:24;23.70;99.90
7194;DHT22;3638;48.820;9.244;2023-07-30T12:56:20;23.70;99.90
7194;DHT22;3638;48.820;9.244;2023-07-30T12:58:47;23.70;99.90
7194;DHT22;3638;48.820;9.244;2023-07-30T13:01:13;23.70;99.90
7194;DHT22;3638;48.820;9.244;2023-07-30T13:03:40;23.60;99.90
7194;DHT22;3638;48.820;9.244;2023-07-30T13:06:10;23.50;99.90
7194;DHT22;3638;48.820;9.244;2023-07-30T13:08:38;23.30;99.90
7194;DHT22;3638;48.820;9.244;2023-07-30T13:11:05;23.30;99.90
7194;DHT22;3638;48.820;9.244;2023-07-30T13:13:33;23.40;99.90
7194;DHT22;3638;48.820;9.244;2023-07-30T13:16:00;23.50;99.90
7194;DHT22;3638;48.820;9.244;2023-07-30T13:18:27;24.10;99.90
7194;DHT22;3638;48.820;9.244;2023-07-30T13:20:54;24.10;99.90
7194;DHT22;3638;48.820;9.244;2023-07-30T13:23:21;24.30;99.90
7194;DHT22;3638;48.820;9.244;2023-07-30T13:25:50;24.60;99.90
7194;DHT22;3638;48.820;9.244;2023-07-30T13:28:17;24.60;99.90
7194;DHT22;3638;48.820;9.244;2023-07-30T13:30:45;24.40;99.90
7194;DHT22;3638;48.820;9.244;2023-07-30T13:33:12;24.40;99.90
7194;DHT22;3638;48.820;9.244;2023-07-30T13:35:39;24.50;99.90
7194;DHT22;3638;48.820;9.244;2023-07-30T13:38:06;24.40;99.90
7194;DHT22;3638;48.820;9.244;2023-07-30T13:40:32;24.20;99.90
7194;DHT22;3638;48.820;9.244;2023-07-30T13:42:59;24.10;99.90
7194;DHT22;3638;48.820;9.244;2023-07-30T13:45:26;24.00;99.90
7194;DHT22;3638;48.820;9.244;2023-07-30T13:47:54;23.80;99.90
7194;DHT22;3638;48.820;9.244;2023-07-30T13:50:21;23.70;99.90
7194;DHT22;3638;48.820;9.244;2023-07-30T13:52:48;23.70;99.90
7194;DHT22;3638;48.820;9.244;2023-07-30T13:55:15;23.70;99.90
7194;DHT22;3638;48.820;9.244;2023-07-30T13:57:42;23.70;99.90
7194;DHT22;3638;48.820;9.244;2023-07-30T14:00:10;23.60;99.90
7194;DHT22;3638;48.820;9.244;2023-07-30T14:02:38;23.60;99.90
7194;DHT22;3638;48.820;9.244;2023-07-30T14:05:07;20.80;99.90
7194;DHT22;3638;48.820;9.244;2023-07-30T14:07:34;23.50;99.90
7194;DHT22;3638;48.820;9.244;2023-07-30T14:10:01;23.70;99.90
7194;DHT22;3638;48.820;9.244;2023-07-30T14:12:28;23.60;99.90
7194;DHT22;3638;48.820;9.244;2023-07-30T14:14:55;23.50;99.90
7194;DHT22;3638;48.820;9.244;2023-07-30T14:17:22;23.50;99.90
7194;DHT22;3638;48.820;9.244;2023-07-30T14:19:49;23.40;99.90
7194;DHT22;3638;48.820;9.244;2023-07-30T14:22:17;23.50;99.90
7194;DHT22;3638;48.820;9.244;2023-07-30T14:24:44;23.40;99.90
7194;DHT22;3638;48.820;9.244;2023-07-30T14:27:11;23.50;99.90
7194;DHT22;3638;48.820;9.244;2023-07-30T14:32:06;23.30;99.90
7194;DHT22;3638;48.820;9.244;2023-07-30T14:34:33;25.10;99.90
7194;DHT22;3638;48.820;9.244;2023-07-30T14:36:59;23.60;99.90
7194;DHT22;3638;48.820;9.244;2023-07-30T14:39:28;23.70;99.90
7194;DHT22;3638;48.820;9.244;2023-07-30T14:41:54;23.60;99.90
7194;DHT22;3638;48.820;9.244;2023-07-30T14:46:48;23.40;99.90
7194;DHT22;3638;48.820;9.244;2023-07-30T14:49:15;23.30;99.90
7194;DHT22;3638;48.820;9.244;2023-07-30T14:51:43;23.20;99.90
7194;DHT22;3638;48.820;9.244;2023-07-30T14:54:09;23.10;99.90
7194;DHT22;3638;48.820;9.244;2023-07-30T14:56:38;23.00;99.90
7194;DHT22;3638;48.820;9.244;2023-07-30T14:59:05;23.00;99.90
7194;DHT22;3638;48.820;9.244;2023-07-30T15:01:32;23.10;99.90
7194;DHT22;3638;48.820;9.244;2023-07-30T15:03:59;22.90;99.90
7194;DHT22;3638;48.820;9.244;2023-07-30T15:06:26;22.90;99.90
7194;DHT22;3638;48.820;9.244;2023-07-30T15:08:54;22.80;99.90
7194;DHT22;3638;48.820;9.244;2023-07-30T15:11:21;22.90;99.90
7194;DHT22;3638;48.820;9.244;2023-07-30T15:13:50;23.00;99.90
7194;DHT22;3638;48.820;9.244;2023-07-30T15:16:17;22.90;99.90
7194;DHT22;3638;48.820;9.244;2023-07-30T15:18:45;22.90;99.90
7194;DHT22;3638;48.820;9.244;2023-07-30T15:21:12;22.80;99.90
7194;DHT22;3638;48.820;9.244;2023-07-30T15:23:41;22.90;99.90
7194;DHT22;3638;48.820;9.244;2023-07-30T15:26:09;22.70;99.90
7194;DHT22;3638;48.820;9.244;2023-07-30T15:28:35;22.60;99.90
7194;DHT22;3638;48.820;9.244;2023-07-30T15:31:04;22.90;99.90
7194;DHT22;3638;48.820;9.244;2023-07-30T15:33:31;22.80;99.90
7194;DHT22;3638;48.820;9.244;2023-07-30T15:35:57;22.70;99.90
7194;DHT22;3638;48.820;9.244;2023-07-30T15:38:24;22.70;99.90
7194;DHT22;3638;48.820;9.244;2023-07-30T15:40:51;22.80;99.90
7194;DHT22;3638;48.820;9.244;2023-07-30T15:43:18;22.80;99.90
7194;DHT22;3638;48.820;9.244;2023-07-30T15:45:45;22.80;99.90
7194;DHT22;3638;48.820;9.244;2023-07-30T15:48:13;22.70;99.90
7194;DHT22;3638;48.820;9.244;2023-07-30T15:50:40;22.70;99.90
7194;DHT22;3638;48.820;9.244;2023-07-30T15:53:07;22.60;99.90
7194;DHT22;3638;48.820;9.244;2023-07-30T15:55:34;22.60;99.90
7194;DHT22;3638;48.820;9.244;2023-07-30T16:00:28;22.40;99.90
7194;DHT22;3638;48.820;9.244;2023-07-30T16:02:55;22.40;99.90
7194;DHT22;3638;48.820;9.244;2023-07-30T16:05:23;22.40;99.90
7194;DHT22;3638;48.820;9.244;2023-07-30T16:07:50;22.40;99.90
7194;DHT22;3638;48.820;9.244;2023-07-30T16:10:17;22.30;99.90
7194;DHT22;3638;48.820;9.244;2023-07-30T16:12:44;25.40;99.90
7194;DHT22;3638;48.820;9.244;2023-07-30T16:15:11;22.20;99.90
7194;DHT22;3638;48.820;9.244;2023-07-30T16:17:38;22.20;99.90
7194;DHT22;3638;48.820;9.244;2023-07-30T16:20:05;22.10;99.90
7194;DHT22;3638;48.820;9.244;2023-07-30T16:22:35;22.10;99.90
7194;DHT22;3638;48.820;9.244;2023-07-30T16:25:03;22.10;99.90
7194;DHT22;3638;48.820;9.244;2023-07-30T16:27:31;22.10;99.90